sensor_id;sensor_type;location;lat;lon;timestamp;P1;durP1;ratioP1;P2;durP2;ratioP2
18320;SDS011;54904;54.350;18.664;2023-04-24T00:01:06;4.25;;;3.85;;
18320;SDS011;54904;54.350;18.664;2023-04-24T00:03:34;3.60;;;3.30;;
18320;SDS011;54904;54.350;18.664;2023-04-24T00:06:01;3.30;;;3.10;;
18320;SDS011;54904;54.350;18.664;2023-04-24T00:08:28;2.85;;;2.63;;
18320;SDS011;54904;54.350;18.664;2023-04-24T00:10:55;3.10;;;2.85;;
18320;SDS011;54904;54.350;18.664;2023-04-24T00:13:23;2.75;;;2.55;;
18320;SDS011;54904;54.350;18.664;2023-04-24T00:15:50;3.72;;;3.42;;
18320;SDS011;54904;54.350;18.664;2023-04-24T00:18:19;3.92;;;3.60;;
18320;SDS011;54904;54.350;18.664;2023-04-24T00:20:46;3.40;;;3.13;;
18320;SDS011;54904;54.350;18.664;2023-04-24T00:23:13;3.10;;;2.78;;
18320;SDS011;54904;54.350;18.664;2023-04-24T00:25:40;3.35;;;3.05;;
18320;SDS011;54904;54.350;18.664;2023-04-24T00:28:07;3.35;;;3.05;;
18320;SDS011;54904;54.350;18.664;2023-04-24T00:30:34;3.58;;;3.30;;
18320;SDS011;54904;54.350;18.664;2023-04-24T00:33:01;3.60;;;3.28;;
18320;SDS011;54904;54.350;18.664;2023-04-24T00:35:30;3.60;;;3.30;;
18320;SDS011;54904;54.350;18.664;2023-04-24T00:37:57;4.53;;;3.73;;
18320;SDS011;54904;54.350;18.664;2023-04-24T00:40:24;4.53;;;4.13;;
18320;SDS011;54904;54.350;18.664;2023-04-24T00:42:53;3.47;;;3.17;;
18320;SDS011;54904;54.350;18.664;2023-04-24T00:45:20;4.15;;;3.83;;
18320;SDS011;54904;54.350;18.664;2023-04-24T00:47:47;4.00;;;3.70;;
18320;SDS011;54904;54.350;18.664;2023-04-24T00:50:15;3.50;;;3.25;;
18320;SDS011;54904;54.350;18.664;2023-04-24T00:52:44;4.43;;;4.03;;
18320;SDS011;54904;54.350;18.664;2023-04-24T00:55:11;4.22;;;3.83;;
18320;SDS011;54904;54.350;18.664;2023-04-24T00:57:38;4.90;;;4.50;;
18320;SDS011;54904;54.350;18.664;2023-04-24T01:00:06;4.73;;;4.33;;
18320;SDS011;54904;54.350;18.664;2023-04-24T01:02:37;4.00;;;3.70;;
18320;SDS011;54904;54.350;18.664;2023-04-24T01:05:09;3.73;;;3.43;;
18320;SDS011;54904;54.350;18.664;2023-04-24T01:07:37;3.37;;;3.07;;
18320;SDS011;54904;54.350;18.664;2023-04-24T01:10:07;2.97;;;2.77;;
18320;SDS011;54904;54.350;18.664;2023-04-24T01:12:35;3.17;;;2.97;;
18320;SDS011;54904;54.350;18.664;2023-04-24T01:15:04;2.80;;;2.60;;
18320;SDS011;54904;54.350;18.664;2023-04-24T01:17:34;2.87;;;2.60;;
18320;SDS011;54904;54.350;18.664;2023-04-24T01:20:01;3.60;;;3.30;;
18320;SDS011;54904;54.350;18.664;2023-04-24T01:22:32;3.93;;;3.53;;
18320;SDS011;54904;54.350;18.664;2023-04-24T01:25:00;3.30;;;3.00;;
18320;SDS011;54904;54.350;18.664;2023-04-24T01:27:29;3.40;;;3.10;;
18320;SDS011;54904;54.350;18.664;2023-04-24T01:29:56;3.93;;;2.93;;
18320;SDS011;54904;54.350;18.664;2023-04-24T01:32:23;4.10;;;3.73;;
18320;SDS011;54904;54.350;18.664;2023-04-24T01:34:50;3.53;;;3.23;;
18320;SDS011;54904;54.350;18.664;2023-04-24T01:37:18;3.10;;;2.90;;
18320;SDS011;54904;54.350;18.664;2023-04-24T01:39:46;2.60;;;2.40;;
18320;SDS011;54904;54.350;18.664;2023-04-24T01:42:13;3.50;;;3.20;;
18320;SDS011;54904;54.350;18.664;2023-04-24T01:44:41;3.27;;;2.97;;
18320;SDS011;54904;54.350;18.664;2023-04-24T01:47:08;2.63;;;2.43;;
18320;SDS011;54904;54.350;18.664;2023-04-24T01:49:36;2.57;;;2.37;;
18320;SDS011;54904;54.350;18.664;2023-04-24T01:52:04;2.70;;;2.50;;
18320;SDS011;54904;54.350;18.664;2023-04-24T01:54:31;1.97;;;1.87;;
18320;SDS011;54904;54.350;18.664;2023-04-24T01:57:00;2.20;;;2.10;;
18320;SDS011;54904;54.350;18.664;2023-04-24T01:59:27;1.90;;;1.80;;
18320;SDS011;54904;54.350;18.664;2023-04-24T02:01:56;1.80;;;1.70;;
18320;SDS011;54904;54.350;18.664;2023-04-24T02:04:23;1.80;;;1.70;;
18320;SDS011;54904;54.350;18.664;2023-04-24T02:06:50;2.17;;;2.00;;
18320;SDS011;54904;54.350;18.664;2023-04-24T02:09:17;1.80;;;1.70;;
18320;SDS011;54904;54.350;18.664;2023-04-24T02:11:44;2.10;;;2.00;;
18320;SDS011;54904;54.350;18.664;2023-04-24T02:14:13;2.20;;;2.10;;
18320;SDS011;54904;54.350;18.664;2023-04-24T02:16:40;1.70;;;1.60;;
18320;SDS011;54904;54.350;18.664;2023-04-24T02:19:07;1.53;;;1.43;;
18320;SDS011;54904;54.350;18.664;2023-04-24T02:21:34;1.70;;;1.60;;
18320;SDS011;54904;54.350;18.664;2023-04-24T02:24:01;1.60;;;1.50;;
18320;SDS011;54904;54.350;18.664;2023-04-24T02:26:29;1.60;;;1.50;;
18320;SDS011;54904;54.350;18.664;2023-04-24T02:28:57;1.20;;;1.20;;
18320;SDS011;54904;54.350;18.664;2023-04-24T02:31:25;1.60;;;1.50;;
18320;SDS011;54904;54.350;18.664;2023-04-24T02:33:52;1.67;;;1.57;;
18320;SDS011;54904;54.350;18.664;2023-04-24T02:36:19;1.57;;;1.57;;
18320;SDS011;54904;54.350;18.664;2023-04-24T02:38:47;1.57;;;1.47;;
18320;SDS011;54904;54.350;18.664;2023-04-24T02:41:14;2.33;;;2.13;;
18320;SDS011;54904;54.350;18.664;2023-04-24T02:43:41;2.00;;;1.80;;
18320;SDS011;54904;54.350;18.664;2023-04-24T02:46:08;2.33;;;2.13;;
18320;SDS011;54904;54.350;18.664;2023-04-24T02:48:37;1.90;;;1.80;;
18320;SDS011;54904;54.350;18.664;2023-04-24T02:51:05;1.67;;;1.57;;
18320;SDS011;54904;54.350;18.664;2023-04-24T02:53:32;2.10;;;1.90;;
18320;SDS011;54904;54.350;18.664;2023-04-24T02:55:59;1.60;;;1.50;;
18320;SDS011;54904;54.350;18.664;2023-04-24T02:58:27;1.97;;;1.50;;
18320;SDS011;54904;54.350;18.664;2023-04-24T03:00:54;1.70;;;1.60;;
18320;SDS011;54904;54.350;18.664;2023-04-24T03:03:21;1.53;;;1.47;;
18320;SDS011;54904;54.350;18.664;2023-04-24T03:05:51;1.70;;;1.60;;
18320;SDS011;54904;54.350;18.664;2023-04-24T03:08:19;1.17;;;1.17;;
18320;SDS011;54904;54.350;18.664;2023-04-24T03:10:47;2.30;;;1.70;;
18320;SDS011;54904;54.350;18.664;2023-04-24T03:13:15;1.70;;;1.60;;
18320;SDS011;54904;54.350;18.664;2023-04-24T03:15:42;2.10;;;2.00;;
18320;SDS011;54904;54.350;18.664;2023-04-24T03:18:10;1.60;;;1.50;;
18320;SDS011;54904;54.350;18.664;2023-04-24T03:20:37;1.47;;;1.37;;
18320;SDS011;54904;54.350;18.664;2023-04-24T03:23:05;2.13;;;1.93;;
18320;SDS011;54904;54.350;18.664;2023-04-24T03:25:34;2.20;;;2.00;;
18320;SDS011;54904;54.350;18.664;2023-04-24T03:28:02;2.00;;;1.90;;
18320;SDS011;54904;54.350;18.664;2023-04-24T03:30:38;2.30;;;2.10;;
18320;SDS011;54904;54.350;18.664;2023-04-24T03:33:06;1.90;;;1.80;;
18320;SDS011;54904;54.350;18.664;2023-04-24T03:35:37;1.80;;;1.70;;
18320;SDS011;54904;54.350;18.664;2023-04-24T03:38:10;1.67;;;1.57;;
18320;SDS011;54904;54.350;18.664;2023-04-24T03:40:49;2.00;;;1.90;;
18320;SDS011;54904;54.350;18.664;2023-04-24T03:43:37;1.77;;;1.67;;
18320;SDS011;54904;54.350;18.664;2023-04-24T03:46:05;1.90;;;1.80;;
18320;SDS011;54904;54.350;18.664;2023-04-24T03:48:38;1.93;;;1.60;;
18320;SDS011;54904;54.350;18.664;2023-04-24T03:51:07;2.20;;;2.00;;
18320;SDS011;54904;54.350;18.664;2023-04-24T03:53:37;2.00;;;1.90;;
18320;SDS011;54904;54.350;18.664;2023-04-24T03:56:05;1.90;;;1.80;;
18320;SDS011;54904;54.350;18.664;2023-04-24T03:58:33;1.90;;;1.80;;
18320;SDS011;54904;54.350;18.664;2023-04-24T04:01:00;2.37;;;1.77;;
18320;SDS011;54904;54.350;18.664;2023-04-24T04:03:55;2.13;;;1.93;;
18320;SDS011;54904;54.350;18.664;2023-04-24T04:06:24;1.80;;;1.70;;
18320;SDS011;54904;54.350;18.664;2023-04-24T04:08:55;1.60;;;1.50;;
18320;SDS011;54904;54.350;18.664;2023-04-24T04:11:22;2.07;;;1.70;;
18320;SDS011;54904;54.350;18.664;2023-04-24T04:13:49;1.87;;;1.77;;
18320;SDS011;54904;54.350;18.664;2023-04-24T04:16:19;2.30;;;2.10;;
18320;SDS011;54904;54.350;18.664;2023-04-24T04:18:49;1.83;;;1.70;;
18320;SDS011;54904;54.350;18.664;2023-04-24T04:21:16;1.70;;;1.60;;
18320;SDS011;54904;54.350;18.664;2023-04-24T04:23:44;2.07;;;1.97;;
18320;SDS011;54904;54.350;18.664;2023-04-24T04:26:28;1.80;;;1.70;;
18320;SDS011;54904;54.350;18.664;2023-04-24T04:29:03;2.00;;;1.90;;
18320;SDS011;54904;54.350;18.664;2023-04-24T04:31:34;1.90;;;1.80;;
18320;SDS011;54904;54.350;18.664;2023-04-24T04:34:06;1.50;;;1.40;;
18320;SDS011;54904;54.350;18.664;2023-04-24T04:36:34;1.83;;;1.73;;
18320;SDS011;54904;54.350;18.664;2023-04-24T04:39:14;2.17;;;1.90;;
18320;SDS011;54904;54.350;18.664;2023-04-24T04:41:59;2.00;;;1.90;;
18320;SDS011;54904;54.350;18.664;2023-04-24T04:44:32;2.20;;;2.00;;
18320;SDS011;54904;54.350;18.664;2023-04-24T04:47:01;8.17;;;2.03;;
18320;SDS011;54904;54.350;18.664;2023-04-24T04:49:32;2.30;;;2.10;;
18320;SDS011;54904;54.350;18.664;2023-04-24T04:52:00;2.30;;;2.10;;
18320;SDS011;54904;54.350;18.664;2023-04-24T04:54:28;2.10;;;1.90;;
18320;SDS011;54904;54.350;18.664;2023-04-24T04:56:56;2.03;;;1.93;;
18320;SDS011;54904;54.350;18.664;2023-04-24T04:59:24;2.27;;;1.90;;
18320;SDS011;54904;54.350;18.664;2023-04-24T05:01:58;2.60;;;2.40;;
18320;SDS011;54904;54.350;18.664;2023-04-24T05:04:25;2.27;;;2.17;;
18320;SDS011;54904;54.350;18.664;2023-04-24T05:06:53;3.30;;;2.30;;
18320;SDS011;54904;54.350;18.664;2023-04-24T05:09:21;2.43;;;2.23;;
18320;SDS011;54904;54.350;18.664;2023-04-24T05:11:53;1.80;;;1.70;;
18320;SDS011;54904;54.350;18.664;2023-04-24T05:14:22;2.27;;;2.00;;
18320;SDS011;54904;54.350;18.664;2023-04-24T05:16:50;3.60;;;2.17;;
18320;SDS011;54904;54.350;18.664;2023-04-24T05:19:19;6.27;;;3.60;;
18320;SDS011;54904;54.350;18.664;2023-04-24T05:21:47;2.57;;;2.10;;
18320;SDS011;54904;54.350;18.664;2023-04-24T05:24:14;4.33;;;2.83;;
18320;SDS011;54904;54.350;18.664;2023-04-24T05:27:01;2.70;;;2.37;;
18320;SDS011;54904;54.350;18.664;2023-04-24T05:29:34;2.57;;;2.37;;
18320;SDS011;54904;54.350;18.664;2023-04-24T05:32:04;4.33;;;2.67;;
18320;SDS011;54904;54.350;18.664;2023-04-24T05:34:33;2.73;;;2.53;;
18320;SDS011;54904;54.350;18.664;2023-04-24T05:37:01;3.33;;;2.90;;
18320;SDS011;54904;54.350;18.664;2023-04-24T05:39:28;3.97;;;3.47;;
18320;SDS011;54904;54.350;18.664;2023-04-24T05:41:56;5.97;;;4.30;;
18320;SDS011;54904;54.350;18.664;2023-04-24T05:44:23;5.77;;;3.30;;
18320;SDS011;54904;54.350;18.664;2023-04-24T05:46:51;2.73;;;2.53;;
18320;SDS011;54904;54.350;18.664;2023-04-24T05:49:19;2.40;;;2.27;;
18320;SDS011;54904;54.350;18.664;2023-04-24T05:51:47;2.47;;;2.37;;
18320;SDS011;54904;54.350;18.664;2023-04-24T05:54:16;2.23;;;2.07;;
18320;SDS011;54904;54.350;18.664;2023-04-24T05:56:43;3.10;;;2.40;;
18320;SDS011;54904;54.350;18.664;2023-04-24T05:59:14;1.90;;;1.80;;
18320;SDS011;54904;54.350;18.664;2023-04-24T06:01:41;4.33;;;2.03;;
18320;SDS011;54904;54.350;18.664;2023-04-24T06:04:14;3.10;;;2.00;;
18320;SDS011;54904;54.350;18.664;2023-04-24T06:06:43;2.30;;;2.10;;
18320;SDS011;54904;54.350;18.664;2023-04-24T06:09:11;2.33;;;2.10;;
18320;SDS011;54904;54.350;18.664;2023-04-24T06:11:38;4.10;;;2.63;;
18320;SDS011;54904;54.350;18.664;2023-04-24T06:14:08;2.20;;;2.10;;
18320;SDS011;54904;54.350;18.664;2023-04-24T06:16:39;2.37;;;2.17;;
18320;SDS011;54904;54.350;18.664;2023-04-24T06:19:28;2.53;;;2.00;;
18320;SDS011;54904;54.350;18.664;2023-04-24T06:21:57;2.40;;;1.93;;
18320;SDS011;54904;54.350;18.664;2023-04-24T06:24:26;2.03;;;1.93;;
18320;SDS011;54904;54.350;18.664;2023-04-24T06:26:54;1.63;;;1.53;;
18320;SDS011;54904;54.350;18.664;2023-04-24T06:29:22;1.80;;;1.70;;
18320;SDS011;54904;54.350;18.664;2023-04-24T06:31:49;1.97;;;1.60;;
18320;SDS011;54904;54.350;18.664;2023-04-24T06:34:16;1.67;;;1.57;;
18320;SDS011;54904;54.350;18.664;2023-04-24T06:36:43;1.93;;;1.60;;
18320;SDS011;54904;54.350;18.664;2023-04-24T06:39:12;1.80;;;1.50;;
18320;SDS011;54904;54.350;18.664;2023-04-24T06:41:39;1.93;;;1.53;;
18320;SDS011;54904;54.350;18.664;2023-04-24T06:44:15;2.03;;;1.37;;
18320;SDS011;54904;54.350;18.664;2023-04-24T06:46:42;1.60;;;1.50;;
18320;SDS011;54904;54.350;18.664;2023-04-24T06:49:10;1.60;;;1.20;;
18320;SDS011;54904;54.350;18.664;2023-04-24T06:51:37;1.67;;;1.10;;
18320;SDS011;54904;54.350;18.664;2023-04-24T06:54:04;1.77;;;1.20;;
18320;SDS011;54904;54.350;18.664;2023-04-24T06:56:32;3.43;;;1.93;;
18320;SDS011;54904;54.350;18.664;2023-04-24T06:58:59;3.07;;;2.10;;
18320;SDS011;54904;54.350;18.664;2023-04-24T07:01:26;2.00;;;1.80;;
18320;SDS011;54904;54.350;18.664;2023-04-24T07:03:54;1.33;;;1.33;;
18320;SDS011;54904;54.350;18.664;2023-04-24T07:06:21;1.37;;;1.30;;
18320;SDS011;54904;54.350;18.664;2023-04-24T07:08:49;1.27;;;1.17;;
18320;SDS011;54904;54.350;18.664;2023-04-24T07:11:16;1.10;;;1.10;;
18320;SDS011;54904;54.350;18.664;2023-04-24T07:13:45;1.43;;;1.40;;
18320;SDS011;54904;54.350;18.664;2023-04-24T07:16:12;0.90;;;0.90;;
18320;SDS011;54904;54.350;18.664;2023-04-24T07:18:39;1.27;;;1.17;;
18320;SDS011;54904;54.350;18.664;2023-04-24T07:21:06;1.13;;;1.00;;
18320;SDS011;54904;54.350;18.664;2023-04-24T07:23:33;0.93;;;0.93;;
18320;SDS011;54904;54.350;18.664;2023-04-24T07:26:00;3.13;;;1.50;;
18320;SDS011;54904;54.350;18.664;2023-04-24T07:28:27;1.60;;;1.50;;
18320;SDS011;54904;54.350;18.664;2023-04-24T07:30:57;1.30;;;1.30;;
18320;SDS011;54904;54.350;18.664;2023-04-24T07:33:25;1.20;;;1.20;;
18320;SDS011;54904;54.350;18.664;2023-04-24T07:35:52;1.30;;;1.20;;
18320;SDS011;54904;54.350;18.664;2023-04-24T07:38:19;1.50;;;1.40;;
18320;SDS011;54904;54.350;18.664;2023-04-24T07:40:47;1.17;;;1.17;;
18320;SDS011;54904;54.350;18.664;2023-04-24T07:43:14;0.90;;;0.90;;
18320;SDS011;54904;54.350;18.664;2023-04-24T07:45:41;2.20;;;1.70;;
18320;SDS011;54904;54.350;18.664;2023-04-24T07:48:10;1.63;;;1.53;;
18320;SDS011;54904;54.350;18.664;2023-04-24T07:50:38;1.70;;;1.60;;
18320;SDS011;54904;54.350;18.664;2023-04-24T07:53:05;1.77;;;1.67;;
18320;SDS011;54904;54.350;18.664;2023-04-24T07:55:33;2.10;;;1.90;;
18320;SDS011;54904;54.350;18.664;2023-04-24T07:58:00;3.73;;;2.97;;
18320;SDS011;54904;54.350;18.664;2023-04-24T08:00:27;4.53;;;2.50;;
18320;SDS011;54904;54.350;18.664;2023-04-24T08:02:54;3.83;;;2.80;;
18320;SDS011;54904;54.350;18.664;2023-04-24T08:05:22;2.70;;;2.50;;
18320;SDS011;54904;54.350;18.664;2023-04-24T08:07:50;3.23;;;2.90;;
18320;SDS011;54904;54.350;18.664;2023-04-24T08:10:17;3.27;;;2.97;;
18320;SDS011;54904;54.350;18.664;2023-04-24T08:12:44;3.47;;;2.90;;
18320;SDS011;54904;54.350;18.664;2023-04-24T08:15:12;2.60;;;2.23;;
18320;SDS011;54904;54.350;18.664;2023-04-24T08:17:39;3.43;;;2.80;;
18320;SDS011;54904;54.350;18.664;2023-04-24T08:20:07;3.47;;;2.83;;
18320;SDS011;54904;54.350;18.664;2023-04-24T08:22:40;3.90;;;2.90;;
18320;SDS011;54904;54.350;18.664;2023-04-24T08:25:07;3.00;;;2.70;;
18320;SDS011;54904;54.350;18.664;2023-04-24T08:27:35;3.77;;;3.43;;
18320;SDS011;54904;54.350;18.664;2023-04-24T08:30:04;4.13;;;3.27;;
18320;SDS011;54904;54.350;18.664;2023-04-24T08:32:32;4.20;;;2.67;;
18320;SDS011;54904;54.350;18.664;2023-04-24T08:34:59;2.70;;;2.50;;
18320;SDS011;54904;54.350;18.664;2023-04-24T08:37:26;2.20;;;2.10;;
18320;SDS011;54904;54.350;18.664;2023-04-24T08:39:55;2.40;;;2.30;;
18320;SDS011;54904;54.350;18.664;2023-04-24T08:42:22;2.67;;;2.47;;
18320;SDS011;54904;54.350;18.664;2023-04-24T08:44:50;2.20;;;2.10;;
18320;SDS011;54904;54.350;18.664;2023-04-24T08:47:17;2.30;;;2.10;;
18320;SDS011;54904;54.350;18.664;2023-04-24T08:49:46;2.00;;;1.90;;
18320;SDS011;54904;54.350;18.664;2023-04-24T08:52:16;2.87;;;2.67;;
18320;SDS011;54904;54.350;18.664;2023-04-24T08:54:45;3.93;;;3.27;;
18320;SDS011;54904;54.350;18.664;2023-04-24T08:57:14;3.00;;;2.70;;
18320;SDS011;54904;54.350;18.664;2023-04-24T08:59:42;3.40;;;3.10;;
18320;SDS011;54904;54.350;18.664;2023-04-24T09:02:13;3.53;;;3.28;;
18320;SDS011;54904;54.350;18.664;2023-04-24T09:04:41;6.20;;;4.10;;
18320;SDS011;54904;54.350;18.664;2023-04-24T09:07:09;4.30;;;3.90;;
18320;SDS011;54904;54.350;18.664;2023-04-24T09:09:38;6.87;;;4.07;;
18320;SDS011;54904;54.350;18.664;2023-04-24T09:12:06;3.38;;;3.05;;
18320;SDS011;54904;54.350;18.664;2023-04-24T09:14:37;2.43;;;2.23;;
18320;SDS011;54904;54.350;18.664;2023-04-24T09:17:07;2.60;;;2.40;;
18320;SDS011;54904;54.350;18.664;2023-04-24T09:19:35;3.55;;;3.25;;
18320;SDS011;54904;54.350;18.664;2023-04-24T09:22:04;4.13;;;3.80;;
18320;SDS011;54904;54.350;18.664;2023-04-24T09:24:33;5.75;;;4.47;;
18320;SDS011;54904;54.350;18.664;2023-04-24T09:27:00;3.77;;;3.47;;
18320;SDS011;54904;54.350;18.664;2023-04-24T09:29:28;4.45;;;3.92;;
18320;SDS011;54904;54.350;18.664;2023-04-24T09:31:56;6.55;;;5.45;;
18320;SDS011;54904;54.350;18.664;2023-04-24T09:34:23;4.70;;;4.30;;
18320;SDS011;54904;54.350;18.664;2023-04-24T09:36:52;5.53;;;4.75;;
18320;SDS011;54904;54.350;18.664;2023-04-24T09:39:19;4.28;;;3.88;;
18320;SDS011;54904;54.350;18.664;2023-04-24T09:41:47;5.47;;;4.43;;
18320;SDS011;54904;54.350;18.664;2023-04-24T09:44:16;5.43;;;4.45;;
18320;SDS011;54904;54.350;18.664;2023-04-24T09:46:49;6.05;;;5.18;;
18320;SDS011;54904;54.350;18.664;2023-04-24T09:49:22;4.47;;;4.07;;
18320;SDS011;54904;54.350;18.664;2023-04-24T09:51:50;3.87;;;3.57;;
18320;SDS011;54904;54.350;18.664;2023-04-24T09:54:18;3.50;;;3.20;;
18320;SDS011;54904;54.350;18.664;2023-04-24T09:56:47;5.35;;;4.30;;
18320;SDS011;54904;54.350;18.664;2023-04-24T09:59:17;5.95;;;4.75;;
18320;SDS011;54904;54.350;18.664;2023-04-24T10:01:45;3.60;;;3.30;;
18320;SDS011;54904;54.350;18.664;2023-04-24T10:04:18;3.50;;;3.20;;
18320;SDS011;54904;54.350;18.664;2023-04-24T10:06:47;8.05;;;5.25;;
18320;SDS011;54904;54.350;18.664;2023-04-24T10:09:15;5.40;;;4.70;;
18320;SDS011;54904;54.350;18.664;2023-04-24T10:11:43;4.00;;;3.67;;
18320;SDS011;54904;54.350;18.664;2023-04-24T10:14:12;4.55;;;4.05;;
18320;SDS011;54904;54.350;18.664;2023-04-24T10:16:39;3.30;;;3.10;;
18320;SDS011;54904;54.350;18.664;2023-04-24T10:19:07;5.53;;;4.80;;
18320;SDS011;54904;54.350;18.664;2023-04-24T10:21:34;7.72;;;6.22;;
18320;SDS011;54904;54.350;18.664;2023-04-24T10:24:04;5.75;;;4.88;;
18320;SDS011;54904;54.350;18.664;2023-04-24T10:26:32;6.55;;;5.75;;
18320;SDS011;54904;54.350;18.664;2023-04-24T10:29:00;8.65;;;6.85;;
18320;SDS011;54904;54.350;18.664;2023-04-24T10:31:30;6.03;;;5.25;;
18320;SDS011;54904;54.350;18.664;2023-04-24T10:33:58;5.35;;;4.68;;
18320;SDS011;54904;54.350;18.664;2023-04-24T10:36:27;7.65;;;5.90;;
18320;SDS011;54904;54.350;18.664;2023-04-24T10:38:58;6.65;;;5.95;;
18320;SDS011;54904;54.350;18.664;2023-04-24T10:41:29;5.85;;;4.68;;
18320;SDS011;54904;54.350;18.664;2023-04-24T10:44:06;7.13;;;5.68;;
18320;SDS011;54904;54.350;18.664;2023-04-24T10:46:35;8.85;;;5.82;;
18320;SDS011;54904;54.350;18.664;2023-04-24T10:49:03;8.93;;;6.22;;
18320;SDS011;54904;54.350;18.664;2023-04-24T10:51:44;5.95;;;5.35;;
18320;SDS011;54904;54.350;18.664;2023-04-24T10:54:22;9.35;;;6.18;;
18320;SDS011;54904;54.350;18.664;2023-04-24T10:56:52;6.70;;;6.00;;
18320;SDS011;54904;54.350;18.664;2023-04-24T10:59:26;6.13;;;5.53;;
18320;SDS011;54904;54.350;18.664;2023-04-24T11:02:02;11.90;;;6.47;;
18320;SDS011;54904;54.350;18.664;2023-04-24T11:04:33;6.03;;;5.10;;
18320;SDS011;54904;54.350;18.664;2023-04-24T11:07:00;6.75;;;5.93;;
18320;SDS011;54904;54.350;18.664;2023-04-24T11:09:30;7.35;;;5.47;;
18320;SDS011;54904;54.350;18.664;2023-04-24T11:12:05;10.23;;;6.38;;
18320;SDS011;54904;54.350;18.664;2023-04-24T11:17:31;7.57;;;6.30;;
18320;SDS011;54904;54.350;18.664;2023-04-24T11:20:02;8.48;;;5.75;;
18320;SDS011;54904;54.350;18.664;2023-04-24T11:22:32;11.40;;;5.88;;
18320;SDS011;54904;54.350;18.664;2023-04-24T11:25:01;5.90;;;4.85;;
18320;SDS011;54904;54.350;18.664;2023-04-24T11:27:32;6.15;;;5.10;;
18320;SDS011;54904;54.350;18.664;2023-04-24T11:30:06;6.43;;;5.75;;
18320;SDS011;54904;54.350;18.664;2023-04-24T11:32:35;6.43;;;5.80;;
18320;SDS011;54904;54.350;18.664;2023-04-24T11:35:04;5.35;;;4.78;;
18320;SDS011;54904;54.350;18.664;2023-04-24T11:37:34;7.10;;;6.00;;
18320;SDS011;54904;54.350;18.664;2023-04-24T11:40:02;10.30;;;5.30;;
18320;SDS011;54904;54.350;18.664;2023-04-24T11:42:34;6.95;;;5.18;;
18320;SDS011;54904;54.350;18.664;2023-04-24T11:45:06;6.70;;;5.03;;
18320;SDS011;54904;54.350;18.664;2023-04-24T11:47:35;5.43;;;4.70;;
18320;SDS011;54904;54.350;18.664;2023-04-24T11:50:03;8.13;;;4.30;;
18320;SDS011;54904;54.350;18.664;2023-04-24T11:52:31;4.00;;;3.65;;
18320;SDS011;54904;54.350;18.664;2023-04-24T11:55:03;4.13;;;3.78;;
18320;SDS011;54904;54.350;18.664;2023-04-24T11:57:31;3.55;;;3.03;;
18320;SDS011;54904;54.350;18.664;2023-04-24T12:00:01;5.20;;;3.72;;
18320;SDS011;54904;54.350;18.664;2023-04-24T12:02:37;3.20;;;3.00;;
18320;SDS011;54904;54.350;18.664;2023-04-24T12:05:05;3.88;;;3.35;;
18320;SDS011;54904;54.350;18.664;2023-04-24T12:07:36;5.10;;;3.17;;
18320;SDS011;54904;54.350;18.664;2023-04-24T12:10:08;4.05;;;2.95;;
18320;SDS011;54904;54.350;18.664;2023-04-24T12:12:35;4.13;;;2.80;;
18320;SDS011;54904;54.350;18.664;2023-04-24T12:15:06;4.93;;;3.22;;
18320;SDS011;54904;54.350;18.664;2023-04-24T12:17:34;4.55;;;2.80;;
18320;SDS011;54904;54.350;18.664;2023-04-24T12:20:03;3.83;;;2.75;;
18320;SDS011;54904;54.350;18.664;2023-04-24T12:22:44;2.50;;;2.30;;
18320;SDS011;54904;54.350;18.664;2023-04-24T12:25:13;3.03;;;2.40;;
18320;SDS011;54904;54.350;18.664;2023-04-24T12:27:41;2.58;;;2.38;;
18320;SDS011;54904;54.350;18.664;2023-04-24T12:30:11;6.93;;;3.55;;
18320;SDS011;54904;54.350;18.664;2023-04-24T12:32:41;4.15;;;3.40;;
18320;SDS011;54904;54.350;18.664;2023-04-24T12:35:08;3.33;;;2.65;;
18320;SDS011;54904;54.350;18.664;2023-04-24T12:37:36;2.97;;;2.67;;
18320;SDS011;54904;54.350;18.664;2023-04-24T12:40:05;3.53;;;2.90;;
18320;SDS011;54904;54.350;18.664;2023-04-24T12:42:34;2.60;;;2.40;;
18320;SDS011;54904;54.350;18.664;2023-04-24T12:45:03;3.83;;;2.67;;
18320;SDS011;54904;54.350;18.664;2023-04-24T12:47:33;2.70;;;2.33;;
18320;SDS011;54904;54.350;18.664;2023-04-24T12:50:01;2.55;;;2.40;;
18320;SDS011;54904;54.350;18.664;2023-04-24T12:52:29;4.47;;;2.70;;
18320;SDS011;54904;54.350;18.664;2023-04-24T12:54:56;2.33;;;2.17;;
18320;SDS011;54904;54.350;18.664;2023-04-24T12:57:25;2.78;;;2.47;;
18320;SDS011;54904;54.350;18.664;2023-04-24T12:59:53;2.92;;;2.47;;
18320;SDS011;54904;54.350;18.664;2023-04-24T13:02:21;2.75;;;2.55;;
18320;SDS011;54904;54.350;18.664;2023-04-24T13:04:50;5.68;;;2.42;;
18320;SDS011;54904;54.350;18.664;2023-04-24T13:07:17;2.55;;;2.30;;
18320;SDS011;54904;54.350;18.664;2023-04-24T13:09:45;2.42;;;2.22;;
18320;SDS011;54904;54.350;18.664;2023-04-24T13:12:13;3.25;;;2.65;;
18320;SDS011;54904;54.350;18.664;2023-04-24T13:14:41;2.70;;;2.50;;
18320;SDS011;54904;54.350;18.664;2023-04-24T13:17:08;3.58;;;2.78;;
18320;SDS011;54904;54.350;18.664;2023-04-24T13:19:37;2.60;;;2.40;;
18320;SDS011;54904;54.350;18.664;2023-04-24T13:22:06;4.38;;;2.70;;
18320;SDS011;54904;54.350;18.664;2023-04-24T13:24:35;2.10;;;2.00;;
18320;SDS011;54904;54.350;18.664;2023-04-24T13:27:02;2.85;;;2.30;;
18320;SDS011;54904;54.350;18.664;2023-04-24T13:29:30;2.30;;;2.13;;
18320;SDS011;54904;54.350;18.664;2023-04-24T13:31:57;2.78;;;2.58;;
18320;SDS011;54904;54.350;18.664;2023-04-24T13:34:24;4.05;;;2.78;;
18320;SDS011;54904;54.350;18.664;2023-04-24T13:36:52;4.95;;;2.50;;
18320;SDS011;54904;54.350;18.664;2023-04-24T13:39:22;2.70;;;2.50;;
18320;SDS011;54904;54.350;18.664;2023-04-24T13:41:50;2.60;;;2.40;;
18320;SDS011;54904;54.350;18.664;2023-04-24T13:44:18;2.00;;;1.90;;
18320;SDS011;54904;54.350;18.664;2023-04-24T13:46:46;2.47;;;2.03;;
18320;SDS011;54904;54.350;18.664;2023-04-24T13:49:15;2.47;;;2.30;;
18320;SDS011;54904;54.350;18.664;2023-04-24T13:51:42;2.05;;;1.92;;
18320;SDS011;54904;54.350;18.664;2023-04-24T13:54:10;3.42;;;2.13;;
18320;SDS011;54904;54.350;18.664;2023-04-24T13:56:39;2.03;;;1.90;;
18320;SDS011;54904;54.350;18.664;2023-04-24T13:59:06;2.65;;;2.30;;
18320;SDS011;54904;54.350;18.664;2023-04-24T14:01:34;3.10;;;2.45;;
18320;SDS011;54904;54.350;18.664;2023-04-24T14:04:01;2.63;;;2.38;;
18320;SDS011;54904;54.350;18.664;2023-04-24T14:06:29;1.95;;;1.85;;
18320;SDS011;54904;54.350;18.664;2023-04-24T14:08:56;2.00;;;1.90;;
18320;SDS011;54904;54.350;18.664;2023-04-24T14:11:23;2.40;;;2.30;;
18320;SDS011;54904;54.350;18.664;2023-04-24T14:13:53;2.40;;;2.20;;
18320;SDS011;54904;54.350;18.664;2023-04-24T14:16:21;4.07;;;2.13;;
18320;SDS011;54904;54.350;18.664;2023-04-24T14:18:49;4.50;;;2.58;;
18320;SDS011;54904;54.350;18.664;2023-04-24T14:21:16;2.30;;;2.20;;
18320;SDS011;54904;54.350;18.664;2023-04-24T14:23:43;3.78;;;2.60;;
18320;SDS011;54904;54.350;18.664;2023-04-24T14:26:10;2.50;;;2.30;;
18320;SDS011;54904;54.350;18.664;2023-04-24T14:28:37;2.40;;;2.20;;
18320;SDS011;54904;54.350;18.664;2023-04-24T14:31:06;3.40;;;2.72;;
18320;SDS011;54904;54.350;18.664;2023-04-24T14:33:33;2.72;;;2.53;;
18320;SDS011;54904;54.350;18.664;2023-04-24T14:36:00;2.42;;;2.22;;
18320;SDS011;54904;54.350;18.664;2023-04-24T14:38:30;2.72;;;2.53;;
18320;SDS011;54904;54.350;18.664;2023-04-24T14:40:57;2.63;;;2.42;;
18320;SDS011;54904;54.350;18.664;2023-04-24T14:43:24;2.08;;;1.92;;
18320;SDS011;54904;54.350;18.664;2023-04-24T14:45:52;2.30;;;2.10;;